SCCF

Details ICAO SCCF (CJC)
Name EL LOA
Region Chile
Timezone America/Santiago (UTC-3.0)
Plans Departing 40
Arriving 48
Stats Elevation 7,543 ft / 2,299 m (AMSL)
Location -22.498200° -68.903600°
Runways 1
Magnetic Variation 5.458° W
Sunrise 2018-12-16 09:47:28 UTC / 2018-12-16 06:47:28 Local
Sunset 2018-12-16 23:17:44 UTC / 2018-12-16 20:17:44 Local
Advertisement - Login to hide

Runways

ID Width Length Bearing (true/mag) Surface Threshold Overrun Markings Lighting
10 98 ft / 30 m 9,455 ft / 2,882 m 93.61° / 99.07° ASPHALT 0 ft / 0 m 100 ft / 30 m APP EDGE THRESHOLD REIL-OMNI
28 98 ft / 30 m 9,455 ft / 2,882 m 273.60° / 279.05° ASPHALT 0 ft / 0 m 100 ft / 30 m APP EDGE THRESHOLD REIL-OMNI

Map

Weather


0- 5 10 15 20 25 30 35+ Temperature / °C

Clouds and Precipitation
Forecast for 2018-12-16 06:00 UTC. Updated 4 hours ago

Ground ~20,000 ft ~40,000 ft Winds

METAR

SCCF 160700Z 11009KT CAVOK 10/M03 Q1025

TAF

TAF SCCF 160417Z 1606/1706 11013KT CAVOK TN08/1606Z TX24/1618Z BECMG 1613/1614 08004KT BECMG 1616/1618 27025KT FEW060 SCT200 TEMPO 1618/1622 27026G36KT BECMG 1622/1700 25015KT CAVOK BECMG 1703/1705 11013KT

Frequencies

Approach 120.90 MHz CALAMA APP
Tower 118.70 MHz CALAMA TWR
Warning: Do not use this data for real-world aviation or navigation. No guarantee of current accuracy is given.